sensor_id;sensor_type;location;lat;lon;timestamp;temperature;humidity
19110;DHT22;9687;50.836;12.060;2022-08-03T00:01:48;24.80;63.50
19110;DHT22;9687;50.836;12.060;2022-08-03T00:04:15;24.70;62.10
19110;DHT22;9687;50.836;12.060;2022-08-03T00:06:43;24.60;60.90
19110;DHT22;9687;50.836;12.060;2022-08-03T00:09:11;24.50;60.80
19110;DHT22;9687;50.836;12.060;2022-08-03T00:11:40;24.50;61.90
19110;DHT22;9687;50.836;12.060;2022-08-03T00:14:08;24.40;62.60
19110;DHT22;9687;50.836;12.060;2022-08-03T00:16:36;24.40;62.20
19110;DHT22;9687;50.836;12.060;2022-08-03T00:19:04;24.30;62.40
19110;DHT22;9687;50.836;12.060;2022-08-03T00:21:31;24.20;61.70
19110;DHT22;9687;50.836;12.060;2022-08-03T00:23:59;24.20;61.60
19110;DHT22;9687;50.836;12.060;2022-08-03T00:26:26;24.10;62.10
19110;DHT22;9687;50.836;12.060;2022-08-03T00:28:55;24.00;62.20
19110;DHT22;9687;50.836;12.060;2022-08-03T00:31:22;24.00;62.60
19110;DHT22;9687;50.836;12.060;2022-08-03T00:33:50;23.90;62.80
19110;DHT22;9687;50.836;12.060;2022-08-03T00:36:18;23.90;62.70
19110;DHT22;9687;50.836;12.060;2022-08-03T00:38:45;23.90;62.80
19110;DHT22;9687;50.836;12.060;2022-08-03T00:41:13;23.80;62.80
19110;DHT22;9687;50.836;12.060;2022-08-03T00:43:41;23.80;62.90
19110;DHT22;9687;50.836;12.060;2022-08-03T00:46:11;23.80;63.00
19110;DHT22;9687;50.836;12.060;2022-08-03T00:48:39;23.80;63.00
19110;DHT22;9687;50.836;12.060;2022-08-03T00:51:07;23.80;63.00
19110;DHT22;9687;50.836;12.060;2022-08-03T00:53:35;23.80;63.00
19110;DHT22;9687;50.836;12.060;2022-08-03T00:56:03;23.80;63.00
19110;DHT22;9687;50.836;12.060;2022-08-03T00:58:31;23.80;63.10
19110;DHT22;9687;50.836;12.060;2022-08-03T01:00:58;23.80;63.10
19110;DHT22;9687;50.836;12.060;2022-08-03T01:03:28;23.80;63.30
19110;DHT22;9687;50.836;12.060;2022-08-03T01:05:59;23.80;63.00
19110;DHT22;9687;50.836;12.060;2022-08-03T01:08:34;23.80;62.70
19110;DHT22;9687;50.836;12.060;2022-08-03T01:11:11;23.80;62.50
19110;DHT22;9687;50.836;12.060;2022-08-03T01:13:47;23.70;62.40
19110;DHT22;9687;50.836;12.060;2022-08-03T01:16:20;23.80;62.50
19110;DHT22;9687;50.836;12.060;2022-08-03T01:18:54;23.70;62.20
19110;DHT22;9687;50.836;12.060;2022-08-03T01:21:27;23.60;61.80
19110;DHT22;9687;50.836;12.060;2022-08-03T01:24:18;23.60;62.00
19110;DHT22;9687;50.836;12.060;2022-08-03T01:27:04;23.50;62.50
19110;DHT22;9687;50.836;12.060;2022-08-03T01:29:51;23.50;63.20
19110;DHT22;9687;50.836;12.060;2022-08-03T01:32:30;23.40;63.10
19110;DHT22;9687;50.836;12.060;2022-08-03T01:35:02;23.30;63.10
19110;DHT22;9687;50.836;12.060;2022-08-03T01:37:37;23.20;63.00
19110;DHT22;9687;50.836;12.060;2022-08-03T01:40:07;23.20;63.50
19110;DHT22;9687;50.836;12.060;2022-08-03T01:42:36;23.20;63.90
19110;DHT22;9687;50.836;12.060;2022-08-03T01:45:08;23.10;64.10
19110;DHT22;9687;50.836;12.060;2022-08-03T01:47:37;23.10;64.30
19110;DHT22;9687;50.836;12.060;2022-08-03T01:50:06;23.00;65.10
19110;DHT22;9687;50.836;12.060;2022-08-03T01:52:37;23.00;64.30
19110;DHT22;9687;50.836;12.060;2022-08-03T01:55:07;23.00;65.00
19110;DHT22;9687;50.836;12.060;2022-08-03T01:57:37;23.00;63.90
19110;DHT22;9687;50.836;12.060;2022-08-03T02:00:08;22.90;63.60
19110;DHT22;9687;50.836;12.060;2022-08-03T02:02:37;23.00;63.60
19110;DHT22;9687;50.836;12.060;2022-08-03T02:05:07;22.90;63.20
19110;DHT22;9687;50.836;12.060;2022-08-03T02:07:38;22.90;63.00
19110;DHT22;9687;50.836;12.060;2022-08-03T02:10:07;22.90;62.90
19110;DHT22;9687;50.836;12.060;2022-08-03T02:12:37;22.90;62.60
19110;DHT22;9687;50.836;12.060;2022-08-03T02:15:09;22.80;62.50
19110;DHT22;9687;50.836;12.060;2022-08-03T02:17:37;22.80;63.10
19110;DHT22;9687;50.836;12.060;2022-08-03T02:20:06;22.70;63.50
19110;DHT22;9687;50.836;12.060;2022-08-03T02:22:35;22.60;64.00
19110;DHT22;9687;50.836;12.060;2022-08-03T02:25:07;22.50;64.30
19110;DHT22;9687;50.836;12.060;2022-08-03T02:27:37;22.50;64.60
19110;DHT22;9687;50.836;12.060;2022-08-03T02:30:10;22.40;64.80
19110;DHT22;9687;50.836;12.060;2022-08-03T02:32:41;22.40;65.10
19110;DHT22;9687;50.836;12.060;2022-08-03T02:35:12;22.40;65.30
19110;DHT22;9687;50.836;12.060;2022-08-03T02:37:52;22.40;65.60
19110;DHT22;9687;50.836;12.060;2022-08-03T02:40:22;22.30;65.60
19110;DHT22;9687;50.836;12.060;2022-08-03T02:42:53;22.30;65.50
19110;DHT22;9687;50.836;12.060;2022-08-03T02:45:24;22.30;65.50
19110;DHT22;9687;50.836;12.060;2022-08-03T02:47:57;22.30;65.30
19110;DHT22;9687;50.836;12.060;2022-08-03T02:50:28;22.20;64.90
19110;DHT22;9687;50.836;12.060;2022-08-03T02:52:57;22.30;64.90
19110;DHT22;9687;50.836;12.060;2022-08-03T02:55:28;22.20;64.70
19110;DHT22;9687;50.836;12.060;2022-08-03T02:58:00;22.30;64.80
19110;DHT22;9687;50.836;12.060;2022-08-03T03:00:32;22.20;64.60
19110;DHT22;9687;50.836;12.060;2022-08-03T03:03:01;22.20;64.50
19110;DHT22;9687;50.836;12.060;2022-08-03T03:05:32;22.20;64.50
19110;DHT22;9687;50.836;12.060;2022-08-03T03:08:04;22.30;64.40
19110;DHT22;9687;50.836;12.060;2022-08-03T03:10:32;22.20;64.20
19110;DHT22;9687;50.836;12.060;2022-08-03T03:13:04;22.30;64.30
19110;DHT22;9687;50.836;12.060;2022-08-03T03:15:34;22.30;64.10
19110;DHT22;9687;50.836;12.060;2022-08-03T03:18:16;22.30;64.80
19110;DHT22;9687;50.836;12.060;2022-08-03T03:21:02;22.20;63.90
19110;DHT22;9687;50.836;12.060;2022-08-03T03:23:30;22.20;63.90
19110;DHT22;9687;50.836;12.060;2022-08-03T03:25:59;22.30;64.10
19110;DHT22;9687;50.836;12.060;2022-08-03T03:28:28;22.20;64.00
19110;DHT22;9687;50.836;12.060;2022-08-03T03:31:05;22.20;63.40
19110;DHT22;9687;50.836;12.060;2022-08-03T03:33:34;22.20;63.90
19110;DHT22;9687;50.836;12.060;2022-08-03T03:36:04;22.20;63.90
19110;DHT22;9687;50.836;12.060;2022-08-03T03:38:33;22.20;63.80
19110;DHT22;9687;50.836;12.060;2022-08-03T03:41:15;22.20;63.80
19110;DHT22;9687;50.836;12.060;2022-08-03T03:43:45;22.20;63.80
19110;DHT22;9687;50.836;12.060;2022-08-03T03:46:31;22.20;63.70
19110;DHT22;9687;50.836;12.060;2022-08-03T03:48:59;22.10;63.60
19110;DHT22;9687;50.836;12.060;2022-08-03T03:51:35;22.10;63.50
19110;DHT22;9687;50.836;12.060;2022-08-03T03:54:03;22.10;63.60
19110;DHT22;9687;50.836;12.060;2022-08-03T03:56:33;22.10;63.80
19110;DHT22;9687;50.836;12.060;2022-08-03T03:59:09;22.10;63.90
19110;DHT22;9687;50.836;12.060;2022-08-03T04:01:43;22.10;64.10
19110;DHT22;9687;50.836;12.060;2022-08-03T04:04:12;22.00;64.00
19110;DHT22;9687;50.836;12.060;2022-08-03T04:06:56;22.00;64.00
19110;DHT22;9687;50.836;12.060;2022-08-03T04:09:42;22.00;64.00
19110;DHT22;9687;50.836;12.060;2022-08-03T04:12:30;22.00;64.00
19110;DHT22;9687;50.836;12.060;2022-08-03T04:15:04;22.00;64.00
19110;DHT22;9687;50.836;12.060;2022-08-03T04:20:37;21.90;63.90
19110;DHT22;9687;50.836;12.060;2022-08-03T04:23:21;21.90;63.90
19110;DHT22;9687;50.836;12.060;2022-08-03T04:25:51;21.90;64.30
19110;DHT22;9687;50.836;12.060;2022-08-03T04:28:21;21.90;64.40
19110;DHT22;9687;50.836;12.060;2022-08-03T04:31:05;21.90;64.40
19110;DHT22;9687;50.836;12.060;2022-08-03T04:33:35;21.90;64.40
19110;DHT22;9687;50.836;12.060;2022-08-03T04:39:10;21.90;65.10
19110;DHT22;9687;50.836;12.060;2022-08-03T04:41:42;21.90;65.00
19110;DHT22;9687;50.836;12.060;2022-08-03T04:44:15;21.90;65.10
19110;DHT22;9687;50.836;12.060;2022-08-03T04:46:58;21.80;65.00
19110;DHT22;9687;50.836;12.060;2022-08-03T04:49:42;21.80;65.00
19110;DHT22;9687;50.836;12.060;2022-08-03T04:52:10;21.80;65.60
19110;DHT22;9687;50.836;12.060;2022-08-03T04:54:52;21.80;65.60
19110;DHT22;9687;50.836;12.060;2022-08-03T04:57:25;21.80;65.70
19110;DHT22;9687;50.836;12.060;2022-08-03T04:59:56;21.70;65.70
19110;DHT22;9687;50.836;12.060;2022-08-03T05:02:31;21.70;65.80
19110;DHT22;9687;50.836;12.060;2022-08-03T05:05:02;21.80;66.20
19110;DHT22;9687;50.836;12.060;2022-08-03T05:07:30;21.70;66.30
19110;DHT22;9687;50.836;12.060;2022-08-03T05:10:11;21.70;66.60
19110;DHT22;9687;50.836;12.060;2022-08-03T05:12:55;21.70;67.50
19110;DHT22;9687;50.836;12.060;2022-08-03T05:15:24;21.60;68.20
19110;DHT22;9687;50.836;12.060;2022-08-03T05:18:08;21.60;69.00
19110;DHT22;9687;50.836;12.060;2022-08-03T05:20:36;21.50;69.40
19110;DHT22;9687;50.836;12.060;2022-08-03T05:23:05;21.50;70.40
19110;DHT22;9687;50.836;12.060;2022-08-03T05:25:36;21.50;70.60
19110;DHT22;9687;50.836;12.060;2022-08-03T05:28:04;21.50;70.90
19110;DHT22;9687;50.836;12.060;2022-08-03T05:30:39;21.50;70.90
19110;DHT22;9687;50.836;12.060;2022-08-03T05:33:08;21.50;70.70
19110;DHT22;9687;50.836;12.060;2022-08-03T05:35:40;21.50;71.70
19110;DHT22;9687;50.836;12.060;2022-08-03T05:38:17;21.60;71.00
19110;DHT22;9687;50.836;12.060;2022-08-03T05:41:03;21.60;71.40
19110;DHT22;9687;50.836;12.060;2022-08-03T05:43:39;21.60;71.50
19110;DHT22;9687;50.836;12.060;2022-08-03T05:46:13;21.70;71.60
19110;DHT22;9687;50.836;12.060;2022-08-03T05:48:53;21.70;71.80
19110;DHT22;9687;50.836;12.060;2022-08-03T05:51:31;21.70;72.30
19110;DHT22;9687;50.836;12.060;2022-08-03T05:54:32;21.70;72.80
19110;DHT22;9687;50.836;12.060;2022-08-03T06:00:40;21.80;73.00
19110;DHT22;9687;50.836;12.060;2022-08-03T06:03:17;21.90;73.00
19110;DHT22;9687;50.836;12.060;2022-08-03T06:05:53;21.90;72.90
19110;DHT22;9687;50.836;12.060;2022-08-03T06:08:40;22.00;72.70
19110;DHT22;9687;50.836;12.060;2022-08-03T06:11:29;22.00;72.90
19110;DHT22;9687;50.836;12.060;2022-08-03T06:14:16;22.10;72.90
19110;DHT22;9687;50.836;12.060;2022-08-03T06:23:35;22.30;73.00
19110;DHT22;9687;50.836;12.060;2022-08-03T06:26:03;22.50;73.00
19110;DHT22;9687;50.836;12.060;2022-08-03T06:28:32;22.50;72.80
19110;DHT22;9687;50.836;12.060;2022-08-03T06:31:03;22.60;72.70
19110;DHT22;9687;50.836;12.060;2022-08-03T06:33:32;22.70;72.60
19110;DHT22;9687;50.836;12.060;2022-08-03T06:36:01;22.80;72.70
19110;DHT22;9687;50.836;12.060;2022-08-03T06:38:29;22.90;72.80
19110;DHT22;9687;50.836;12.060;2022-08-03T06:40:59;23.00;72.80
19110;DHT22;9687;50.836;12.060;2022-08-03T06:43:27;23.00;72.50
19110;DHT22;9687;50.836;12.060;2022-08-03T06:45:56;23.10;72.40
19110;DHT22;9687;50.836;12.060;2022-08-03T06:48:24;23.20;72.40
19110;DHT22;9687;50.836;12.060;2022-08-03T06:50:52;23.30;72.60
19110;DHT22;9687;50.836;12.060;2022-08-03T06:53:22;23.40;72.70
19110;DHT22;9687;50.836;12.060;2022-08-03T06:55:52;23.50;72.80
19110;DHT22;9687;50.836;12.060;2022-08-03T06:58:21;23.60;72.90
19110;DHT22;9687;50.836;12.060;2022-08-03T07:00:50;23.60;72.70
19110;DHT22;9687;50.836;12.060;2022-08-03T07:03:32;23.80;73.00
19110;DHT22;9687;50.836;12.060;2022-08-03T07:06:05;23.80;73.10
19110;DHT22;9687;50.836;12.060;2022-08-03T07:08:47;24.00;72.80
19110;DHT22;9687;50.836;12.060;2022-08-03T07:11:16;24.00;72.60
19110;DHT22;9687;50.836;12.060;2022-08-03T07:14:18;24.10;72.80
19110;DHT22;9687;50.836;12.060;2022-08-03T07:16:51;24.20;72.50
19110;DHT22;9687;50.836;12.060;2022-08-03T07:19:22;24.40;72.60
19110;DHT22;9687;50.836;12.060;2022-08-03T07:21:53;24.50;72.10
19110;DHT22;9687;50.836;12.060;2022-08-03T07:24:21;24.60;72.30
19110;DHT22;9687;50.836;12.060;2022-08-03T07:26:53;24.70;71.50
19110;DHT22;9687;50.836;12.060;2022-08-03T07:29:26;24.80;71.10
19110;DHT22;9687;50.836;12.060;2022-08-03T07:31:54;24.90;70.00
19110;DHT22;9687;50.836;12.060;2022-08-03T07:34:21;25.00;69.00
19110;DHT22;9687;50.836;12.060;2022-08-03T07:36:49;25.10;68.00
19110;DHT22;9687;50.836;12.060;2022-08-03T07:39:17;25.30;67.30
19110;DHT22;9687;50.836;12.060;2022-08-03T07:41:45;25.50;66.80
19110;DHT22;9687;50.836;12.060;2022-08-03T07:44:20;25.70;66.40
19110;DHT22;9687;50.836;12.060;2022-08-03T07:47:31;26.00;66.00
19110;DHT22;9687;50.836;12.060;2022-08-03T07:50:08;26.50;64.10
19110;DHT22;9687;50.836;12.060;2022-08-03T07:52:50;26.70;63.90
19110;DHT22;9687;50.836;12.060;2022-08-03T07:55:25;27.00;62.50
19110;DHT22;9687;50.836;12.060;2022-08-03T07:58:16;26.90;63.00
19110;DHT22;9687;50.836;12.060;2022-08-03T08:00:44;27.10;62.40
19110;DHT22;9687;50.836;12.060;2022-08-03T08:03:13;27.20;62.50
19110;DHT22;9687;50.836;12.060;2022-08-03T08:05:41;27.40;59.90
19110;DHT22;9687;50.836;12.060;2022-08-03T08:08:09;27.60;59.70
19110;DHT22;9687;50.836;12.060;2022-08-03T08:10:37;28.10;58.80
19110;DHT22;9687;50.836;12.060;2022-08-03T08:13:06;28.80;56.50
19110;DHT22;9687;50.836;12.060;2022-08-03T08:15:33;29.90;53.50
19110;DHT22;9687;50.836;12.060;2022-08-03T08:18:01;30.00;53.70
19110;DHT22;9687;50.836;12.060;2022-08-03T08:20:32;30.70;52.90
19110;DHT22;9687;50.836;12.060;2022-08-03T08:23:02;31.30;51.10
19110;DHT22;9687;50.836;12.060;2022-08-03T08:25:30;32.00;48.90
19110;DHT22;9687;50.836;12.060;2022-08-03T08:27:59;32.70;47.90
19110;DHT22;9687;50.836;12.060;2022-08-03T08:30:29;33.40;45.80
19110;DHT22;9687;50.836;12.060;2022-08-03T08:32:57;34.00;44.70
19110;DHT22;9687;50.836;12.060;2022-08-03T08:35:27;34.60;43.90
19110;DHT22;9687;50.836;12.060;2022-08-03T08:37:59;35.30;43.00
19110;DHT22;9687;50.836;12.060;2022-08-03T08:40:27;35.90;42.20
19110;DHT22;9687;50.836;12.060;2022-08-03T08:42:55;36.60;41.40
19110;DHT22;9687;50.836;12.060;2022-08-03T08:45:23;37.20;40.50
19110;DHT22;9687;50.836;12.060;2022-08-03T08:47:51;37.90;39.20
19110;DHT22;9687;50.836;12.060;2022-08-03T08:50:21;38.50;37.80
19110;DHT22;9687;50.836;12.060;2022-08-03T08:52:49;39.20;37.40
19110;DHT22;9687;50.836;12.060;2022-08-03T08:55:22;39.80;36.20
19110;DHT22;9687;50.836;12.060;2022-08-03T08:57:52;40.40;35.40
19110;DHT22;9687;50.836;12.060;2022-08-03T09:00:24;41.00;34.90
19110;DHT22;9687;50.836;12.060;2022-08-03T09:02:51;41.60;34.30
19110;DHT22;9687;50.836;12.060;2022-08-03T09:05:19;42.30;33.00
19110;DHT22;9687;50.836;12.060;2022-08-03T09:07:47;42.80;32.00
19110;DHT22;9687;50.836;12.060;2022-08-03T09:10:16;43.40;31.60
19110;DHT22;9687;50.836;12.060;2022-08-03T09:12:49;43.90;31.10
19110;DHT22;9687;50.836;12.060;2022-08-03T09:15:22;44.40;30.30
19110;DHT22;9687;50.836;12.060;2022-08-03T09:17:52;45.00;29.10
19110;DHT22;9687;50.836;12.060;2022-08-03T09:20:22;45.40;28.80
19110;DHT22;9687;50.836;12.060;2022-08-03T09:22:53;45.70;28.30
19110;DHT22;9687;50.836;12.060;2022-08-03T09:25:32;46.00;28.00
19110;DHT22;9687;50.836;12.060;2022-08-03T09:28:09;46.30;27.90
19110;DHT22;9687;50.836;12.060;2022-08-03T09:30:38;46.70;27.70
19110;DHT22;9687;50.836;12.060;2022-08-03T09:33:07;47.00;27.30
19110;DHT22;9687;50.836;12.060;2022-08-03T09:35:40;47.40;27.10
19110;DHT22;9687;50.836;12.060;2022-08-03T09:38:10;47.80;27.20
19110;DHT22;9687;50.836;12.060;2022-08-03T09:40:38;47.90;26.30
19110;DHT22;9687;50.836;12.060;2022-08-03T09:43:08;47.90;26.20
19110;DHT22;9687;50.836;12.060;2022-08-03T09:45:36;47.90;26.30
19110;DHT22;9687;50.836;12.060;2022-08-03T09:48:21;47.90;26.30
19110;DHT22;9687;50.836;12.060;2022-08-03T09:50:50;48.00;26.40
19110;DHT22;9687;50.836;12.060;2022-08-03T09:53:18;48.30;26.10
19110;DHT22;9687;50.836;12.060;2022-08-03T09:55:56;48.50;26.10
19110;DHT22;9687;50.836;12.060;2022-08-03T09:58:28;48.50;25.20
19110;DHT22;9687;50.836;12.060;2022-08-03T10:00:57;48.50;25.60
19110;DHT22;9687;50.836;12.060;2022-08-03T10:03:26;48.70;25.50
19110;DHT22;9687;50.836;12.060;2022-08-03T10:05:55;48.80;25.50
19110;DHT22;9687;50.836;12.060;2022-08-03T10:08:23;49.10;25.50
19110;DHT22;9687;50.836;12.060;2022-08-03T10:10:51;49.40;25.20
19110;DHT22;9687;50.836;12.060;2022-08-03T10:13:21;49.70;25.10
19110;DHT22;9687;50.836;12.060;2022-08-03T10:15:50;50.00;24.70
19110;DHT22;9687;50.836;12.060;2022-08-03T10:18:19;50.20;24.70
19110;DHT22;9687;50.836;12.060;2022-08-03T10:20:50;50.30;24.50
19110;DHT22;9687;50.836;12.060;2022-08-03T10:23:19;50.40;24.30
19110;DHT22;9687;50.836;12.060;2022-08-03T10:25:52;50.40;24.00
19110;DHT22;9687;50.836;12.060;2022-08-03T10:28:21;50.20;24.10
19110;DHT22;9687;50.836;12.060;2022-08-03T10:30:52;50.00;24.00
19110;DHT22;9687;50.836;12.060;2022-08-03T10:33:23;49.90;24.10
19110;DHT22;9687;50.836;12.060;2022-08-03T10:35:55;49.80;24.20
19110;DHT22;9687;50.836;12.060;2022-08-03T10:38:29;49.70;24.00
19110;DHT22;9687;50.836;12.060;2022-08-03T10:41:02;49.60;24.20
19110;DHT22;9687;50.836;12.060;2022-08-03T10:43:37;49.50;24.10
19110;DHT22;9687;50.836;12.060;2022-08-03T10:46:15;49.20;24.00
19110;DHT22;9687;50.836;12.060;2022-08-03T10:48:44;49.00;24.10
19110;DHT22;9687;50.836;12.060;2022-08-03T10:51:13;48.90;24.40
19110;DHT22;9687;50.836;12.060;2022-08-03T10:53:41;49.10;24.50
19110;DHT22;9687;50.836;12.060;2022-08-03T10:56:39;49.20;24.40
19110;DHT22;9687;50.836;12.060;2022-08-03T10:59:58;49.20;24.20
19110;DHT22;9687;50.836;12.060;2022-08-03T11:05:39;49.20;23.90
19110;DHT22;9687;50.836;12.060;2022-08-03T11:08:27;49.00;23.60
19110;DHT22;9687;50.836;12.060;2022-08-03T11:10:58;48.80;23.70
19110;DHT22;9687;50.836;12.060;2022-08-03T11:13:28;48.70;24.00
19110;DHT22;9687;50.836;12.060;2022-08-03T11:16:02;48.80;24.20
19110;DHT22;9687;50.836;12.060;2022-08-03T11:18:30;48.80;24.30
19110;DHT22;9687;50.836;12.060;2022-08-03T11:21:00;48.80;23.70
19110;DHT22;9687;50.836;12.060;2022-08-03T11:23:44;48.70;23.70
19110;DHT22;9687;50.836;12.060;2022-08-03T11:26:16;48.30;23.80
19110;DHT22;9687;50.836;12.060;2022-08-03T11:28:44;47.90;23.80
19110;DHT22;9687;50.836;12.060;2022-08-03T11:34:23;47.30;24.10
19110;DHT22;9687;50.836;12.060;2022-08-03T11:40:02;46.70;23.90
19110;DHT22;9687;50.836;12.060;2022-08-03T11:42:43;46.70;24.30
19110;DHT22;9687;50.836;12.060;2022-08-03T11:45:13;46.70;24.70
19110;DHT22;9687;50.836;12.060;2022-08-03T11:47:42;46.70;24.40
19110;DHT22;9687;50.836;12.060;2022-08-03T11:50:10;46.60;24.10
19110;DHT22;9687;50.836;12.060;2022-08-03T11:52:40;46.60;24.50
19110;DHT22;9687;50.836;12.060;2022-08-03T11:55:15;46.50;24.50
19110;DHT22;9687;50.836;12.060;2022-08-03T11:57:44;46.40;24.50
19110;DHT22;9687;50.836;12.060;2022-08-03T12:00:26;46.20;24.90
19110;DHT22;9687;50.836;12.060;2022-08-03T12:02:58;46.00;25.00
19110;DHT22;9687;50.836;12.060;2022-08-03T12:05:36;45.70;25.00
19110;DHT22;9687;50.836;12.060;2022-08-03T12:08:05;45.30;25.20
19110;DHT22;9687;50.836;12.060;2022-08-03T12:10:37;44.90;25.60
19110;DHT22;9687;50.836;12.060;2022-08-03T12:13:06;43.80;25.60
19110;DHT22;9687;50.836;12.060;2022-08-03T12:15:35;43.80;26.10
19110;DHT22;9687;50.836;12.060;2022-08-03T12:18:13;43.30;26.10
19110;DHT22;9687;50.836;12.060;2022-08-03T12:20:50;42.70;26.30
19110;DHT22;9687;50.836;12.060;2022-08-03T12:23:18;42.10;26.50
19110;DHT22;9687;50.836;12.060;2022-08-03T12:25:49;41.50;26.50
19110;DHT22;9687;50.836;12.060;2022-08-03T12:28:19;40.90;27.50
19110;DHT22;9687;50.836;12.060;2022-08-03T12:30:50;40.40;28.20
19110;DHT22;9687;50.836;12.060;2022-08-03T12:33:20;40.00;28.20
19110;DHT22;9687;50.836;12.060;2022-08-03T12:35:50;39.70;28.60
19110;DHT22;9687;50.836;12.060;2022-08-03T12:38:29;39.40;29.70
19110;DHT22;9687;50.836;12.060;2022-08-03T12:41:00;39.00;29.40
19110;DHT22;9687;50.836;12.060;2022-08-03T12:43:28;38.80;29.40
19110;DHT22;9687;50.836;12.060;2022-08-03T12:46:09;38.60;29.40
19110;DHT22;9687;50.836;12.060;2022-08-03T12:49:02;38.40;29.40
19110;DHT22;9687;50.836;12.060;2022-08-03T12:51:31;38.20;30.50
19110;DHT22;9687;50.836;12.060;2022-08-03T12:54:00;38.00;30.40
19110;DHT22;9687;50.836;12.060;2022-08-03T12:56:29;37.70;29.80
19110;DHT22;9687;50.836;12.060;2022-08-03T12:58:58;37.70;30.10
19110;DHT22;9687;50.836;12.060;2022-08-03T13:01:25;37.50;30.00
19110;DHT22;9687;50.836;12.060;2022-08-03T13:04:02;37.40;30.40
19110;DHT22;9687;50.836;12.060;2022-08-03T13:06:31;37.30;30.60
19110;DHT22;9687;50.836;12.060;2022-08-03T13:09:03;37.10;30.10
19110;DHT22;9687;50.836;12.060;2022-08-03T13:11:33;37.00;30.00
19110;DHT22;9687;50.836;12.060;2022-08-03T13:14:00;36.80;30.10
19110;DHT22;9687;50.836;12.060;2022-08-03T13:16:28;36.70;30.50
19110;DHT22;9687;50.836;12.060;2022-08-03T13:18:56;36.60;30.30
19110;DHT22;9687;50.836;12.060;2022-08-03T13:21:23;36.50;30.30
19110;DHT22;9687;50.836;12.060;2022-08-03T13:23:51;36.40;30.40
19110;DHT22;9687;50.836;12.060;2022-08-03T13:26:19;36.40;30.90
19110;DHT22;9687;50.836;12.060;2022-08-03T13:28:48;36.40;31.20
19110;DHT22;9687;50.836;12.060;2022-08-03T13:31:16;36.30;31.20
19110;DHT22;9687;50.836;12.060;2022-08-03T13:33:43;36.30;31.60
19110;DHT22;9687;50.836;12.060;2022-08-03T13:36:11;36.30;31.50
19110;DHT22;9687;50.836;12.060;2022-08-03T13:38:38;36.20;30.90
19110;DHT22;9687;50.836;12.060;2022-08-03T13:41:06;36.30;31.60
19110;DHT22;9687;50.836;12.060;2022-08-03T13:43:35;36.20;31.50
19110;DHT22;9687;50.836;12.060;2022-08-03T13:46:07;36.20;31.70
19110;DHT22;9687;50.836;12.060;2022-08-03T13:48:38;36.20;31.60
19110;DHT22;9687;50.836;12.060;2022-08-03T13:51:08;36.20;31.70
19110;DHT22;9687;50.836;12.060;2022-08-03T13:53:38;36.00;32.00
19110;DHT22;9687;50.836;12.060;2022-08-03T13:56:08;35.90;31.60
19110;DHT22;9687;50.836;12.060;2022-08-03T13:58:36;35.90;31.90
19110;DHT22;9687;50.836;12.060;2022-08-03T14:01:04;35.90;31.70
19110;DHT22;9687;50.836;12.060;2022-08-03T14:03:33;35.90;31.40
19110;DHT22;9687;50.836;12.060;2022-08-03T14:06:02;36.00;31.40
19110;DHT22;9687;50.836;12.060;2022-08-03T14:08:30;36.00;31.60
19110;DHT22;9687;50.836;12.060;2022-08-03T14:10:58;36.00;31.20
19110;DHT22;9687;50.836;12.060;2022-08-03T14:13:25;36.00;30.90
19110;DHT22;9687;50.836;12.060;2022-08-03T14:15:53;36.00;30.80
19110;DHT22;9687;50.836;12.060;2022-08-03T14:18:21;36.00;31.10
19110;DHT22;9687;50.836;12.060;2022-08-03T14:20:50;36.00;32.00
19110;DHT22;9687;50.836;12.060;2022-08-03T14:23:18;36.10;31.60
19110;DHT22;9687;50.836;12.060;2022-08-03T14:25:46;36.10;31.20
19110;DHT22;9687;50.836;12.060;2022-08-03T14:28:14;36.10;31.70
19110;DHT22;9687;50.836;12.060;2022-08-03T14:30:42;36.10;31.90
19110;DHT22;9687;50.836;12.060;2022-08-03T14:33:10;36.00;31.90
19110;DHT22;9687;50.836;12.060;2022-08-03T14:35:38;36.00;31.90
19110;DHT22;9687;50.836;12.060;2022-08-03T14:38:08;36.00;31.30
19110;DHT22;9687;50.836;12.060;2022-08-03T14:40:36;36.00;30.60
19110;DHT22;9687;50.836;12.060;2022-08-03T14:43:03;36.00;30.40
19110;DHT22;9687;50.836;12.060;2022-08-03T14:45:31;36.00;30.20
19110;DHT22;9687;50.836;12.060;2022-08-03T14:47:59;36.00;30.00
19110;DHT22;9687;50.836;12.060;2022-08-03T14:50:27;36.10;30.70
19110;DHT22;9687;50.836;12.060;2022-08-03T14:52:55;36.10;30.80
19110;DHT22;9687;50.836;12.060;2022-08-03T14:55:24;36.10;30.80
19110;DHT22;9687;50.836;12.060;2022-08-03T14:57:53;36.10;30.90
19110;DHT22;9687;50.836;12.060;2022-08-03T15:00:21;36.10;30.90
19110;DHT22;9687;50.836;12.060;2022-08-03T15:02:49;36.10;30.70
19110;DHT22;9687;50.836;12.060;2022-08-03T15:05:17;36.20;30.80
19110;DHT22;9687;50.836;12.060;2022-08-03T15:07:46;36.10;30.80
19110;DHT22;9687;50.836;12.060;2022-08-03T15:10:17;36.20;31.10
19110;DHT22;9687;50.836;12.060;2022-08-03T15:12:49;36.20;30.30
19110;DHT22;9687;50.836;12.060;2022-08-03T15:15:21;36.20;30.20
19110;DHT22;9687;50.836;12.060;2022-08-03T15:18:10;36.10;30.00
19110;DHT22;9687;50.836;12.060;2022-08-03T15:20:56;36.10;29.80
19110;DHT22;9687;50.836;12.060;2022-08-03T15:23:26;36.10;29.70
19110;DHT22;9687;50.836;12.060;2022-08-03T15:25:53;36.10;30.00
19110;DHT22;9687;50.836;12.060;2022-08-03T15:28:23;36.10;30.00
19110;DHT22;9687;50.836;12.060;2022-08-03T15:30:51;36.10;29.70
19110;DHT22;9687;50.836;12.060;2022-08-03T15:33:18;36.10;30.00
19110;DHT22;9687;50.836;12.060;2022-08-03T15:35:46;36.00;29.90
19110;DHT22;9687;50.836;12.060;2022-08-03T15:38:14;36.00;30.00
19110;DHT22;9687;50.836;12.060;2022-08-03T15:40:42;36.00;30.30
19110;DHT22;9687;50.836;12.060;2022-08-03T15:43:10;35.90;30.00
19110;DHT22;9687;50.836;12.060;2022-08-03T15:45:42;35.90;30.00
19110;DHT22;9687;50.836;12.060;2022-08-03T15:48:10;35.90;30.40
19110;DHT22;9687;50.836;12.060;2022-08-03T15:50:38;35.90;30.30
19110;DHT22;9687;50.836;12.060;2022-08-03T15:53:06;35.90;30.10
19110;DHT22;9687;50.836;12.060;2022-08-03T15:55:33;35.80;30.30
19110;DHT22;9687;50.836;12.060;2022-08-03T15:58:01;35.80;30.10
19110;DHT22;9687;50.836;12.060;2022-08-03T16:00:29;35.80;30.10
19110;DHT22;9687;50.836;12.060;2022-08-03T16:02:58;35.70;29.90
19110;DHT22;9687;50.836;12.060;2022-08-03T16:05:26;35.80;30.20
19110;DHT22;9687;50.836;12.060;2022-08-03T16:07:54;35.80;30.30
19110;DHT22;9687;50.836;12.060;2022-08-03T16:10:22;35.80;30.60
19110;DHT22;9687;50.836;12.060;2022-08-03T16:12:50;35.80;30.50
19110;DHT22;9687;50.836;12.060;2022-08-03T16:15:18;35.80;30.00
19110;DHT22;9687;50.836;12.060;2022-08-03T16:17:45;35.80;30.40
19110;DHT22;9687;50.836;12.060;2022-08-03T16:20:15;35.80;30.50
19110;DHT22;9687;50.836;12.060;2022-08-03T16:22:43;35.80;30.60
19110;DHT22;9687;50.836;12.060;2022-08-03T16:25:13;35.80;30.40